Time;durP1;ratioP1;P1;durP2;ratioP2;P2;SDS_P1;SDS_P2;PMS_P1;PMS_P2;Temp;Humidity;BMP_temperature;BMP_pressure;BME280_temperature;BME280_humidity;BME280_pressure;Samples;Min_cycle;Max_cycle;Signal;HPM_P1;HPM_P2
2023/10/08 00:01:25;;;;;;;0.70;0.60;;;;;;;;;;6262100;22;20403;-77
2023/10/08 00:03:57;;;;;;;0.60;0.50;;;;;;;;;;6277971;22;20015;-78
2023/10/08 00:06:24;;;;;;;1.05;0.77;;;;;;;;;;6278849;22;20386;-78
2023/10/08 00:08:50;;;;;;;1.40;0.93;;;;;;;;;;6278171;22;20015;-78
2023/10/08 00:11:17;;;;;;;0.82;0.73;;;;;;;;;;6278151;22;20441;-77
2023/10/08 00:13:43;;;;;;;1.35;0.82;;;;;;;;;;6279124;22;20019;-77
2023/10/08 00:16:10;;;;;;;0.80;0.70;;;;;;;;;;6277894;22;20023;-77
2023/10/08 00:18:37;;;;;;;1.75;0.63;;;;;;;;;;6305306;22;20007;-77
2023/10/08 00:23:41;;;;;;;1.00;0.70;;;;;;;;;;6306161;22;20015;-77
2023/10/08 00:26:07;;;;;;;2.25;0.70;;;;;;;;;;6305193;22;20517;-78
2023/10/08 00:28:34;;;;;;;1.63;0.55;;;;;;;;;;6305777;22;20519;-78
2023/10/08 00:31:12;;;;;;;0.68;0.60;;;;;;;;;;6305442;22;20042;-77
2023/10/08 00:33:44;;;;;;;1.08;0.60;;;;;;;;;;6277509;22;20026;-77
2023/10/08 00:36:20;;;;;;;1.05;0.63;;;;;;;;;;6277844;22;20352;-78
2023/10/08 00:38:49;;;;;;;0.93;0.60;;;;;;;;;;6278710;22;20124;-78
2023/10/08 00:41:15;;;;;;;1.42;0.60;;;;;;;;;;6277607;22;20007;-78
2023/10/08 00:43:42;;;;;;;0.80;0.60;;;;;;;;;;6306126;22;20019;-77
2023/10/08 00:47:13;;;;;;;0.47;0.47;;;;;;;;;;6277540;22;20042;-77
2023/10/08 00:51:59;;;;;;;0.82;0.60;;;;;;;;;;6306391;22;20015;-77
2023/10/08 00:54:28;;;;;;;1.17;0.65;;;;;;;;;;6305773;22;20019;-77
2023/10/08 00:56:57;;;;;;;0.80;0.63;;;;;;;;;;6304320;22;20039;-77
2023/10/08 00:59:24;;;;;;;0.80;0.68;;;;;;;;;;6277408;22;20077;-77
2023/10/08 01:01:52;;;;;;;0.90;0.70;;;;;;;;;;6304423;22;20079;-77
2023/10/08 01:04:22;;;;;;;1.58;0.75;;;;;;;;;;6277192;22;20015;-77
2023/10/08 01:06:51;;;;;;;1.00;0.80;;;;;;;;;;6305429;22;20326;-77
2023/10/08 01:09:18;;;;;;;1.65;0.60;;;;;;;;;;6277128;22;20023;-77
2023/10/08 01:11:49;;;;;;;0.95;0.80;;;;;;;;;;6252534;22;20011;-77
2023/10/08 01:14:17;;;;;;;1.02;0.90;;;;;;;;;;6277806;22;20022;-78
2023/10/08 01:16:46;;;;;;;1.10;0.70;;;;;;;;;;6277891;22;20024;-78
2023/10/08 01:19:19;;;;;;;2.53;0.98;;;;;;;;;;6305329;22;20011;-78
2023/10/08 01:21:45;;;;;;;1.05;0.80;;;;;;;;;;6278552;22;20081;-78
2023/10/08 01:24:16;;;;;;;1.48;0.98;;;;;;;;;;6305087;22;20460;-77
2023/10/08 01:26:42;;;;;;;1.15;0.90;;;;;;;;;;6305186;22;20440;-78
2023/10/08 01:29:20;;;;;;;0.95;0.80;;;;;;;;;;6304329;22;20011;-78
2023/10/08 01:31:48;;;;;;;0.63;0.50;;;;;;;;;;6277293;22;20471;-77
2023/10/08 01:34:17;;;;;;;1.30;0.60;;;;;;;;;;6304663;22;20039;-77
2023/10/08 01:36:46;;;;;;;1.10;0.73;;;;;;;;;;6278541;22;20390;-77
2023/10/08 01:39:15;;;;;;;1.00;0.70;;;;;;;;;;6304555;22;20043;-77
2023/10/08 01:41:46;;;;;;;0.70;0.50;;;;;;;;;;6305792;22;20033;-77
2023/10/08 01:44:12;;;;;;;0.70;0.60;;;;;;;;;;6277147;22;20007;-77
2023/10/08 01:46:40;;;;;;;1.70;0.43;;;;;;;;;;6277679;22;20015;-77
2023/10/08 01:49:14;;;;;;;0.63;0.47;;;;;;;;;;6277395;22;20015;-77
2023/10/08 01:51:47;;;;;;;2.15;0.35;;;;;;;;;;6305634;22;20018;-77
2023/10/08 01:54:17;;;;;;;0.57;0.50;;;;;;;;;;6276885;22;20015;-78
2023/10/08 01:56:43;;;;;;;0.32;0.30;;;;;;;;;;6277645;22;20016;-77
2023/10/08 01:59:14;;;;;;;0.82;0.32;;;;;;;;;;6276663;22;20015;-77
2023/10/08 02:01:41;;;;;;;0.50;0.40;;;;;;;;;;6277089;22;20369;-77
2023/10/08 02:04:07;;;;;;;0.47;0.30;;;;;;;;;;6251900;22;20011;-77
2023/10/08 02:06:34;;;;;;;0.77;0.40;;;;;;;;;;6304751;22;20022;-77
2023/10/08 02:09:06;;;;;;;0.52;0.52;;;;;;;;;;6304742;22;20314;-77
2023/10/08 02:11:32;;;;;;;1.25;0.43;;;;;;;;;;6277407;22;20018;-77
2023/10/08 02:13:58;;;;;;;5.20;1.20;;;;;;;;;;6277075;22;20015;-77
2023/10/08 02:16:24;;;;;;;0.85;0.40;;;;;;;;;;6304930;22;20165;-77
2023/10/08 02:18:51;;;;;;;0.63;0.28;;;;;;;;;;6304916;22;20015;-77
2023/10/08 02:21:17;;;;;;;1.30;0.50;;;;;;;;;;6276731;22;20023;-77
2023/10/08 02:23:43;;;;;;;0.50;0.50;;;;;;;;;;6277758;22;20090;-78
2023/10/08 02:26:10;;;;;;;1.35;0.50;;;;;;;;;;6276688;22;20047;-78
2023/10/08 02:28:38;;;;;;;0.65;0.50;;;;;;;;;;6303821;22;20015;-78
2023/10/08 02:31:04;;;;;;;1.65;0.73;;;;;;;;;;6276794;22;20019;-77
2023/10/08 02:33:30;;;;;;;1.33;0.52;;;;;;;;;;6303669;22;20065;-78
2023/10/08 02:35:56;;;;;;;1.95;0.50;;;;;;;;;;6303714;22;20021;-77
2023/10/08 02:38:22;;;;;;;0.45;0.40;;;;;;;;;;6277469;22;20090;-78
2023/10/08 02:40:48;;;;;;;0.82;0.50;;;;;;;;;;6277629;22;20356;-78
2023/10/08 02:43:15;;;;;;;1.30;0.45;;;;;;;;;;6276449;22;20472;-78
2023/10/08 02:45:41;;;;;;;0.63;0.50;;;;;;;;;;6277586;22;20022;-78
2023/10/08 02:48:13;;;;;;;1.52;0.40;;;;;;;;;;6276257;22;20098;-78
2023/10/08 02:50:45;;;;;;;0.80;0.47;;;;;;;;;;6277587;22;20018;-78
2023/10/08 02:53:11;;;;;;;1.08;0.52;;;;;;;;;;6277425;22;20019;-78
2023/10/08 02:55:44;;;;;;;1.60;0.60;;;;;;;;;;6304565;22;20018;-78
2023/10/08 02:58:18;;;;;;;0.45;0.38;;;;;;;;;;6276656;22;20055;-78
2023/10/08 03:00:46;;;;;;;1.05;0.40;;;;;;;;;;6277246;22;20019;-78
2023/10/08 03:03:16;;;;;;;0.60;0.57;;;;;;;;;;6277209;22;20018;-77
2023/10/08 03:05:46;;;;;;;1.27;0.55;;;;;;;;;;6305523;22;20022;-77
2023/10/08 03:08:12;;;;;;;1.33;0.52;;;;;;;;;;6278382;22;20025;-78
2023/10/08 03:10:39;;;;;;;1.02;0.50;;;;;;;;;;6254231;22;20042;-77
2023/10/08 03:13:07;;;;;;;1.65;0.88;;;;;;;;;;6280315;22;20015;-77
2023/10/08 03:18:21;;;;;;;1.30;0.65;;;;;;;;;;6275954;22;20018;-77
2023/10/08 03:20:49;;;;;;;0.70;0.40;;;;;;;;;;6276536;22;20037;-77
2023/10/08 03:25:56;;;;;;;1.13;0.73;;;;;;;;;;6279126;22;20023;-77
2023/10/08 03:28:24;;;;;;;1.45;0.85;;;;;;;;;;6279356;22;20027;-77
2023/10/08 03:30:50;;;;;;;3.28;0.70;;;;;;;;;;6278723;22;20015;-77
2023/10/08 03:33:22;;;;;;;0.93;0.65;;;;;;;;;;6277513;22;20023;-77
2023/10/08 03:35:52;;;;;;;1.13;0.95;;;;;;;;;;6277550;22;20019;-77
2023/10/08 03:38:44;;;;;;;1.52;0.55;;;;;;;;;;6305730;22;20064;-77
2023/10/08 03:41:15;;;;;;;1.50;0.77;;;;;;;;;;6306179;22;20054;-77
2023/10/08 03:46:42;;;;;;;1.33;0.90;;;;;;;;;;6255128;22;20046;-77
2023/10/08 03:49:25;;;;;;;1.15;0.70;;;;;;;;;;6278735;22;20344;-77
2023/10/08 03:51:53;;;;;;;1.92;1.00;;;;;;;;;;6306336;22;20018;-77
2023/10/08 03:54:27;;;;;;;1.60;0.82;;;;;;;;;;6305381;22;20034;-77
2023/10/08 03:56:53;;;;;;;1.70;0.80;;;;;;;;;;6305839;22;20015;-77
2023/10/08 03:59:31;;;;;;;1.75;0.60;;;;;;;;;;6306354;22;20007;-77
2023/10/08 04:02:14;;;;;;;0.68;0.57;;;;;;;;;;6278371;22;20395;-77
2023/10/08 04:04:51;;;;;;;2.15;0.85;;;;;;;;;;6278863;22;20016;-77
2023/10/08 04:07:25;;;;;;;1.10;0.73;;;;;;;;;;6278494;22;20394;-77
2023/10/08 04:10:05;;;;;;;2.85;0.70;;;;;;;;;;6278325;22;20022;-77
2023/10/08 04:12:34;;;;;;;1.77;0.80;;;;;;;;;;6277412;22;20096;-77
2023/10/08 04:15:01;;;;;;;0.65;0.60;;;;;;;;;;6305486;22;20018;-77
2023/10/08 04:17:27;;;;;;;0.95;0.60;;;;;;;;;;6277953;22;20037;-77
2023/10/08 04:19:53;;;;;;;1.10;0.95;;;;;;;;;;6278865;22;20444;-77
2023/10/08 04:22:19;;;;;;;1.75;0.80;;;;;;;;;;6277769;22;20331;-77
2023/10/08 04:24:45;;;;;;;1.83;0.70;;;;;;;;;;6305668;22;20053;-77
2023/10/08 04:27:11;;;;;;;1.75;0.68;;;;;;;;;;6305216;22;20011;-77
2023/10/08 04:29:37;;;;;;;1.33;0.60;;;;;;;;;;6306200;22;20038;-77
2023/10/08 04:32:20;;;;;;;1.20;0.70;;;;;;;;;;6277905;22;20021;-77
2023/10/08 04:34:47;;;;;;;1.92;0.95;;;;;;;;;;6305584;22;20012;-77
2023/10/08 04:37:13;;;;;;;1.55;0.57;;;;;;;;;;6305511;22;20015;-77
2023/10/08 04:39:46;;;;;;;2.20;0.65;;;;;;;;;;6278513;22;20018;-77
2023/10/08 04:42:14;;;;;;;1.10;0.70;;;;;;;;;;6304282;22;20038;-77
2023/10/08 04:44:43;;;;;;;1.08;0.60;;;;;;;;;;6305521;22;20448;-78
2023/10/08 04:47:31;;;;;;;2.08;0.82;;;;;;;;;;6305664;22;20030;-78
2023/10/08 04:49:56;;;;;;;1.15;0.68;;;;;;;;;;6305291;22;20026;-78
2023/10/08 04:52:25;;;;;;;1.25;0.50;;;;;;;;;;6277467;22;20357;-77
2023/10/08 04:54:51;;;;;;;1.80;0.80;;;;;;;;;;6278474;22;20471;-77
2023/10/08 04:57:18;;;;;;;1.35;0.60;;;;;;;;;;6304155;22;20011;-77
2023/10/08 04:59:44;;;;;;;2.10;0.63;;;;;;;;;;6278703;22;20038;-78
2023/10/08 05:15:41;;;;;;;2.08;0.50;;;;;;;;;;6277948;22;20019;-78
2023/10/08 05:18:23;;;;;;;1.80;0.52;;;;;;;;;;6277582;22;20031;-78
2023/10/08 05:25:58;;;;;;;1.27;0.50;;;;;;;;;;6277589;22;20022;-78
2023/10/08 05:28:27;;;;;;;2.40;0.50;;;;;;;;;;6304947;22;20018;-78
2023/10/08 05:34:14;;;;;;;1.65;0.60;;;;;;;;;;6278032;22;20386;-78
2023/10/08 05:36:50;;;;;;;3.10;1.48;;;;;;;;;;6304276;22;20352;-77
2023/10/08 05:39:40;;;;;;;0.90;0.75;;;;;;;;;;6304793;22;20015;-77
2023/10/08 05:44:39;;;;;;;0.75;0.60;;;;;;;;;;6303295;22;20017;-77
2023/10/08 05:49:42;;;;;;;0.80;0.80;;;;;;;;;;6304629;22;20053;-78
2023/10/08 05:52:24;;;;;;;2.83;0.82;;;;;;;;;;6276524;22;20069;-77
2023/10/08 05:57:38;;;;;;;0.85;0.50;;;;;;;;;;6304723;22;20019;-77
2023/10/08 06:08:14;;;;;;;2.75;0.68;;;;;;;;;;6304439;22;20019;-77
2023/10/08 06:13:55;;;;;;;7.60;0.80;;;;;;;;;;6277305;22;20022;-77
2023/10/08 06:15:49;;;;;;;0.98;0.50;;;;;;;;;;6261089;22;20019;-77
2023/10/08 06:18:15;;;;;;;7.28;1.50;;;;;;;;;;6275717;22;20344;-77
2023/10/08 06:20:43;;;;;;;1.55;0.60;;;;;;;;;;6276378;22;20019;-77
2023/10/08 06:23:11;;;;;;;1.17;0.40;;;;;;;;;;6304352;22;20019;-77
2023/10/08 06:25:46;;;;;;;1.40;0.68;;;;;;;;;;6305203;22;20011;-77
2023/10/08 06:28:21;;;;;;;1.00;0.43;;;;;;;;;;6303799;22;20011;-77
2023/10/08 06:30:54;;;;;;;1.70;0.65;;;;;;;;;;6278390;22;20332;-77
2023/10/08 06:33:20;;;;;;;0.50;0.47;;;;;;;;;;6277101;22;20084;-78
2023/10/08 06:36:02;;;;;;;2.38;0.68;;;;;;;;;;6276986;22;20023;-78
2023/10/08 06:38:32;;;;;;;1.85;0.50;;;;;;;;;;6277883;22;20034;-78
2023/10/08 06:41:08;;;;;;;1.23;0.40;;;;;;;;;;6277311;22;20015;-78
2023/10/08 06:43:36;;;;;;;2.08;0.55;;;;;;;;;;6303948;22;20045;-78
2023/10/08 06:46:03;;;;;;;2.38;0.63;;;;;;;;;;6277567;22;20329;-78
2023/10/08 06:48:29;;;;;;;1.55;0.60;;;;;;;;;;6279900;22;20025;-79
2023/10/08 06:51:07;;;;;;;2.00;0.65;;;;;;;;;;6285998;22;20436;-79
2023/10/08 06:53:33;;;;;;;1.13;0.68;;;;;;;;;;6284395;22;20019;-79
2023/10/08 06:56:04;;;;;;;1.75;0.50;;;;;;;;;;6280424;22;20083;-79
2023/10/08 06:58:33;;;;;;;1.33;0.57;;;;;;;;;;6313510;22;20015;-80
2023/10/08 07:01:04;;;;;;;0.95;0.50;;;;;;;;;;6283850;22;20015;-79
2023/10/08 07:03:31;;;;;;;2.55;0.70;;;;;;;;;;6282728;22;20015;-80
2023/10/08 07:06:16;;;;;;;2.90;1.25;;;;;;;;;;6284382;22;20015;-80
2023/10/08 07:08:43;;;;;;;0.50;0.50;;;;;;;;;;6285086;22;20067;-80
2023/10/08 07:11:11;;;;;;;3.20;0.93;;;;;;;;;;6286105;22;20095;-79
2023/10/08 07:13:40;;;;;;;2.05;0.60;;;;;;;;;;6311641;22;20086;-79
2023/10/08 07:16:11;;;;;;;1.17;0.80;;;;;;;;;;6310123;22;20335;-80
2023/10/08 07:18:37;;;;;;;2.50;0.80;;;;;;;;;;6314219;22;20042;-79
2023/10/08 07:21:04;;;;;;;1.13;0.57;;;;;;;;;;6322196;22;20077;-80
2023/10/08 07:23:34;;;;;;;1.35;0.45;;;;;;;;;;6316646;22;20012;-78
2023/10/08 07:26:13;;;;;;;1.40;0.70;;;;;;;;;;6291567;22;20022;-79
2023/10/08 07:28:42;;;;;;;1.55;0.82;;;;;;;;;;6287686;22;20462;-82
2023/10/08 07:31:21;;;;;;;1.77;0.98;;;;;;;;;;6282892;22;20348;-81
2023/10/08 07:34:18;;;;;;;1.05;0.55;;;;;;;;;;6312993;22;20386;-81
2023/10/08 07:36:45;;;;;;;0.90;0.47;;;;;;;;;;6284157;22;20019;-80
2023/10/08 07:39:25;;;;;;;2.95;0.52;;;;;;;;;;6283067;22;20094;-80
2023/10/08 07:41:53;;;;;;;1.83;0.50;;;;;;;;;;6257947;22;20102;-80
2023/10/08 07:44:22;;;;;;;3.30;0.70;;;;;;;;;;6258656;22;20018;-83
2023/10/08 07:46:49;;;;;;;2.78;0.77;;;;;;;;;;6283075;22;20011;-80
2023/10/08 07:49:15;;;;;;;1.25;0.65;;;;;;;;;;6258090;22;19999;-81
2023/10/08 07:51:41;;;;;;;0.90;0.63;;;;;;;;;;6307905;22;20388;-79
2023/10/08 07:54:16;;;;;;;1.52;0.70;;;;;;;;;;6307458;22;20082;-79
2023/10/08 07:56:42;;;;;;;0.50;0.50;;;;;;;;;;6307161;22;20026;-79
2023/10/08 07:59:08;;;;;;;2.17;0.70;;;;;;;;;;6277780;22;20432;-78
2023/10/08 08:01:35;;;;;;;2.33;0.57;;;;;;;;;;6305088;22;20020;-78
2023/10/08 08:04:01;;;;;;;1.48;0.55;;;;;;;;;;6303570;22;20011;-78
2023/10/08 08:06:27;;;;;;;2.40;0.90;;;;;;;;;;6303766;22;20018;-79
2023/10/08 08:08:55;;;;;;;1.33;0.40;;;;;;;;;;6278908;22;20018;-79
2023/10/08 08:11:26;;;;;;;1.65;0.63;;;;;;;;;;6278544;22;20019;-78
2023/10/08 08:13:52;;;;;;;2.50;0.68;;;;;;;;;;6278871;22;20047;-78
2023/10/08 08:16:20;;;;;;;1.73;0.47;;;;;;;;;;6277882;22;20011;-78
2023/10/08 08:18:48;;;;;;;1.70;0.60;;;;;;;;;;6278695;22;20049;-78
2023/10/08 08:21:15;;;;;;;4.55;0.73;;;;;;;;;;6277751;22;20034;-78
2023/10/08 08:23:48;;;;;;;2.55;0.50;;;;;;;;;;6277998;22;20082;-79
2023/10/08 08:26:27;;;;;;;1.50;0.60;;;;;;;;;;6305533;22;20019;-80
2023/10/08 08:29:02;;;;;;;5.47;0.80;;;;;;;;;;6258756;22;20023;-80
2023/10/08 08:31:31;;;;;;;4.35;0.52;;;;;;;;;;6306533;22;20083;-79
2023/10/08 08:34:02;;;;;;;2.42;0.70;;;;;;;;;;6279487;22;20022;-79
2023/10/08 08:36:29;;;;;;;1.65;0.70;;;;;;;;;;6277614;22;20015;-78
2023/10/08 08:38:55;;;;;;;1.92;0.88;;;;;;;;;;6305749;22;20456;-78
2023/10/08 08:41:22;;;;;;;2.15;0.40;;;;;;;;;;6278369;22;20094;-78
2023/10/08 08:43:49;;;;;;;4.40;0.82;;;;;;;;;;6306599;22;20008;-78
2023/10/08 08:46:16;;;;;;;1.20;0.80;;;;;;;;;;6252284;22;20079;-78
2023/10/08 08:48:46;;;;;;;2.10;0.93;;;;;;;;;;6306160;22;20018;-78
2023/10/08 08:51:13;;;;;;;0.77;0.50;;;;;;;;;;6277894;22;20046;-78
2023/10/08 08:53:40;;;;;;;3.20;1.27;;;;;;;;;;6305716;22;20041;-78
2023/10/08 08:56:09;;;;;;;2.33;0.70;;;;;;;;;;6277366;22;20023;-78
2023/10/08 08:58:36;;;;;;;2.05;0.50;;;;;;;;;;6305889;22;20378;-78
2023/10/08 09:01:03;;;;;;;1.05;0.60;;;;;;;;;;6305527;22;20444;-78
2023/10/08 09:03:32;;;;;;;3.45;0.65;;;;;;;;;;6306444;22;20015;-78
2023/10/08 09:05:59;;;;;;;3.92;0.60;;;;;;;;;;6278409;22;20046;-78
2023/10/08 09:08:45;;;;;;;1.30;0.50;;;;;;;;;;6277244;22;20018;-78
2023/10/08 09:11:15;;;;;;;2.20;0.43;;;;;;;;;;6305037;22;20065;-78
2023/10/08 09:13:41;;;;;;;1.35;0.30;;;;;;;;;;6306498;22;20073;-78
2023/10/08 09:16:15;;;;;;;4.68;0.52;;;;;;;;;;6279299;22;20080;-78
2023/10/08 09:18:43;;;;;;;2.88;0.45;;;;;;;;;;6278092;22;20023;-78
2023/10/08 09:21:15;;;;;;;2.25;0.40;;;;;;;;;;6277362;22;21044;-78
2023/10/08 09:23:43;;;;;;;2.38;0.43;;;;;;;;;;6306158;22;20046;-78
2023/10/08 09:26:09;;;;;;;1.42;0.50;;;;;;;;;;6276970;22;20023;-78
2023/10/08 09:28:38;;;;;;;0.75;0.30;;;;;;;;;;6278033;22;20447;-78
2023/10/08 09:31:06;;;;;;;2.75;0.52;;;;;;;;;;6305741;22;20019;-78
2023/10/08 09:33:32;;;;;;;3.40;0.68;;;;;;;;;;6305556;22;20047;-78
2023/10/08 09:36:02;;;;;;;2.30;0.50;;;;;;;;;;6304415;22;20019;-78
2023/10/08 09:38:30;;;;;;;3.47;0.57;;;;;;;;;;6277837;22;20049;-78
2023/10/08 09:40:56;;;;;;;2.25;0.43;;;;;;;;;;6304656;22;20012;-78
2023/10/08 09:43:24;;;;;;;1.55;0.55;;;;;;;;;;6252363;22;20065;-78
2023/10/08 09:45:59;;;;;;;1.30;0.43;;;;;;;;;;6304182;22;20022;-78
2023/10/08 09:48:30;;;;;;;1.42;0.22;;;;;;;;;;6277050;22;20019;-78
2023/10/08 09:50:58;;;;;;;3.63;0.55;;;;;;;;;;6277746;22;20064;-78
2023/10/08 09:53:31;;;;;;;2.35;0.38;;;;;;;;;;6276730;22;20037;-78
2023/10/08 09:55:58;;;;;;;2.60;0.40;;;;;;;;;;6304378;22;20011;-78
2023/10/08 09:58:24;;;;;;;2.80;0.50;;;;;;;;;;6277580;22;20013;-78
2023/10/08 10:00:51;;;;;;;2.05;0.50;;;;;;;;;;6305322;22;20015;-78
2023/10/08 10:03:18;;;;;;;2.15;0.40;;;;;;;;;;6277921;22;20059;-80
2023/10/08 10:05:45;;;;;;;1.42;0.22;;;;;;;;;;6278157;22;20015;-78
2023/10/08 10:08:11;;;;;;;4.38;0.35;;;;;;;;;;6277449;22;20015;-78
2023/10/08 10:10:38;;;;;;;2.25;0.70;;;;;;;;;;6277795;22;20011;-78
2023/10/08 10:13:04;;;;;;;1.25;0.40;;;;;;;;;;6277566;22;20007;-78
2023/10/08 10:15:34;;;;;;;1.65;0.60;;;;;;;;;;6304908;22;20043;-78
2023/10/08 10:18:19;;;;;;;1.52;0.50;;;;;;;;;;6276755;22;20422;-78
2023/10/08 10:21:00;;;;;;;2.42;0.60;;;;;;;;;;6305294;22;20017;-78
2023/10/08 10:23:36;;;;;;;3.97;0.77;;;;;;;;;;6277981;22;20023;-78
2023/10/08 10:26:03;;;;;;;1.95;0.45;;;;;;;;;;6305568;22;20007;-79
2023/10/08 10:28:29;;;;;;;2.20;0.50;;;;;;;;;;6306307;22;20012;-78
2023/10/08 10:30:56;;;;;;;2.15;0.63;;;;;;;;;;6278988;22;20011;-78
2023/10/08 10:33:29;;;;;;;1.08;0.40;;;;;;;;;;6278418;22;20088;-78
2023/10/08 10:35:56;;;;;;;2.35;0.70;;;;;;;;;;6277102;22;20448;-78
2023/10/08 10:38:26;;;;;;;1.63;0.35;;;;;;;;;;6305417;22;20015;-78
2023/10/08 10:40:58;;;;;;;4.95;0.65;;;;;;;;;;6277505;22;20401;-78
2023/10/08 10:43:32;;;;;;;5.18;0.93;;;;;;;;;;6305741;22;20018;-79
2023/10/08 10:45:58;;;;;;;2.55;0.50;;;;;;;;;;6303747;22;20015;-79
2023/10/08 10:48:34;;;;;;;3.03;0.57;;;;;;;;;;6278245;22;20088;-79
2023/10/08 10:53:33;;;;;;;0.85;0.40;;;;;;;;;;6306871;22;20019;-79
2023/10/08 10:56:03;;;;;;;2.90;0.60;;;;;;;;;;6278878;22;20035;-79
2023/10/08 10:58:38;;;;;;;;;;;;;;;;;;6281061;22;20045;-79
2023/10/08 11:01:21;;;;;;;2.38;0.63;;;;;;;;;;6304601;22;20239;-79
2023/10/08 11:03:51;;;;;;;3.70;0.63;;;;;;;;;;6308337;22;20023;-79
2023/10/08 11:06:22;;;;;;;2.13;0.50;;;;;;;;;;6305215;22;20019;-78
2023/10/08 11:08:49;;;;;;;2.63;0.65;;;;;;;;;;6255795;22;20022;-81
2023/10/08 11:11:17;;;;;;;2.38;0.60;;;;;;;;;;6253239;22;20015;-79
2023/10/08 11:13:49;;;;;;;3.30;0.70;;;;;;;;;;6282198;22;20016;-79
2023/10/08 11:16:15;;;;;;;2.78;0.22;;;;;;;;;;6278834;22;20018;-78
2023/10/08 11:18:44;;;;;;;2.58;0.35;;;;;;;;;;6285261;22;20015;-79
2023/10/08 11:21:15;;;;;;;2.65;0.50;;;;;;;;;;6258256;22;20015;-79
2023/10/08 11:23:59;;;;;;;1.88;0.40;;;;;;;;;;6282520;22;20080;-79
2023/10/08 11:26:32;;;;;;;1.83;0.50;;;;;;;;;;6284798;22;20019;-79
2023/10/08 11:29:00;;;;;;;4.75;0.88;;;;;;;;;;6284531;22;20019;-79
2023/10/08 11:31:28;;;;;;;3.30;0.55;;;;;;;;;;6313540;22;20018;-80
2023/10/08 11:33:59;;;;;;;3.40;0.82;;;;;;;;;;6284914;22;20090;-79
2023/10/08 11:36:27;;;;;;;4.60;0.80;;;;;;;;;;6315451;22;20028;-79
2023/10/08 11:39:06;;;;;;;1.40;0.50;;;;;;;;;;6312645;22;20042;-79
2023/10/08 11:41:44;;;;;;;2.42;0.73;;;;;;;;;;6285137;22;20063;-79
2023/10/08 11:44:13;;;;;;;2.83;0.57;;;;;;;;;;6319038;22;20019;-79
2023/10/08 11:46:39;;;;;;;2.97;0.60;;;;;;;;;;6313082;22;20015;-79
2023/10/08 11:49:05;;;;;;;1.65;0.60;;;;;;;;;;6310933;22;20446;-79
2023/10/08 11:51:35;;;;;;;2.42;0.57;;;;;;;;;;6284193;22;20019;-79
2023/10/08 11:54:02;;;;;;;2.20;0.70;;;;;;;;;;6280775;22;20065;-79
2023/10/08 11:56:29;;;;;;;1.88;0.50;;;;;;;;;;6306978;22;20018;-78
2023/10/08 11:58:56;;;;;;;1.25;0.40;;;;;;;;;;6252698;22;20068;-79
2023/10/08 12:01:23;;;;;;;2.85;0.50;;;;;;;;;;6278448;22;20510;-78
2023/10/08 12:03:50;;;;;;;1.88;0.70;;;;;;;;;;6278516;22;20023;-78
2023/10/08 12:06:18;;;;;;;2.78;0.50;;;;;;;;;;6276817;22;20050;-78
2023/10/08 12:08:53;;;;;;;5.40;0.70;;;;;;;;;;6304998;22;20011;-78
2023/10/08 12:11:19;;;;;;;1.17;0.40;;;;;;;;;;6278323;22;20022;-78
2023/10/08 12:13:45;;;;;;;1.80;0.47;;;;;;;;;;6281238;22;20047;-79
2023/10/08 12:16:18;;;;;;;2.10;0.50;;;;;;;;;;6306190;22;20106;-83
2023/10/08 12:18:58;;;;;;;1.95;0.50;;;;;;;;;;6309536;22;20015;-79
2023/10/08 12:21:24;;;;;;;4.45;0.77;;;;;;;;;;6283962;22;20022;-79
2023/10/08 12:23:51;;;;;;;2.13;0.70;;;;;;;;;;6283989;22;20336;-79
2023/10/08 12:26:18;;;;;;;1.00;0.32;;;;;;;;;;6258191;22;20034;-79
2023/10/08 12:28:45;;;;;;;2.45;0.47;;;;;;;;;;6233017;22;20031;-79
2023/10/08 12:31:12;;;;;;;3.20;0.47;;;;;;;;;;6283247;22;20020;-79
2023/10/08 12:33:40;;;;;;;1.85;0.65;;;;;;;;;;6282354;22;20326;-79
2023/10/08 12:36:12;;;;;;;2.20;0.60;;;;;;;;;;6282327;22;20015;-79
2023/10/08 12:38:39;;;;;;;4.60;0.50;;;;;;;;;;6282768;22;20018;-80
2023/10/08 12:41:11;;;;;;;2.60;0.40;;;;;;;;;;6282982;22;20015;-79
2023/10/08 12:43:38;;;;;;;2.45;0.50;;;;;;;;;;6282837;22;20011;-80
2023/10/08 12:46:10;;;;;;;3.35;0.50;;;;;;;;;;6281756;22;20026;-79
2023/10/08 12:48:38;;;;;;;2.67;0.63;;;;;;;;;;6282136;22;20019;-79
2023/10/08 12:51:06;;;;;;;1.10;0.55;;;;;;;;;;6281729;22;20050;-80
2023/10/08 12:53:38;;;;;;;2.92;0.50;;;;;;;;;;6281578;22;20510;-79
2023/10/08 12:56:05;;;;;;;1.80;0.70;;;;;;;;;;6255669;22;20090;-79
2023/10/08 12:58:39;;;;;;;1.42;0.63;;;;;;;;;;6281342;22;20018;-79
2023/10/08 13:01:07;;;;;;;3.05;0.50;;;;;;;;;;6280473;22;20011;-79
2023/10/08 13:03:35;;;;;;;2.38;0.70;;;;;;;;;;6280862;22;20019;-79
2023/10/08 13:06:04;;;;;;;3.63;0.70;;;;;;;;;;6255414;22;20047;-80
2023/10/08 13:08:31;;;;;;;2.25;0.50;;;;;;;;;;6309025;22;20063;-79
2023/10/08 13:11:00;;;;;;;5.78;0.60;;;;;;;;;;6307984;22;20460;-79
2023/10/08 13:13:26;;;;;;;2.25;0.65;;;;;;;;;;6281366;22;20462;-79
2023/10/08 13:15:56;;;;;;;2.35;0.40;;;;;;;;;;6281695;22;20030;-80
2023/10/08 13:18:22;;;;;;;2.28;0.40;;;;;;;;;;6282006;22;20587;-80
2023/10/08 13:20:48;;;;;;;3.10;0.40;;;;;;;;;;6310241;22;20086;-80
2023/10/08 13:23:14;;;;;;;0.70;0.40;;;;;;;;;;6310209;22;20340;-80
2023/10/08 13:25:40;;;;;;;3.33;0.55;;;;;;;;;;6287503;22;20023;-80
2023/10/08 13:28:09;;;;;;;1.45;0.55;;;;;;;;;;6283441;22;20051;-80
2023/10/08 13:30:35;;;;;;;4.63;0.60;;;;;;;;;;6284034;22;20090;-80
2023/10/08 13:33:01;;;;;;;2.70;0.52;;;;;;;;;;6311476;22;20026;-80
2023/10/08 13:35:27;;;;;;;3.00;0.90;;;;;;;;;;6310799;22;20063;-79
2023/10/08 13:37:55;;;;;;;2.67;0.52;;;;;;;;;;6283291;22;20016;-80
2023/10/08 13:40:32;;;;;;;2.10;0.30;;;;;;;;;;6284313;22;20011;-80
2023/10/08 13:42:58;;;;;;;2.97;0.50;;;;;;;;;;6284658;22;20015;-80
2023/10/08 13:45:29;;;;;;;2.33;0.55;;;;;;;;;;6284287;22;20011;-80
2023/10/08 13:47:56;;;;;;;4.78;0.55;;;;;;;;;;6312220;22;20090;-80
2023/10/08 13:50:23;;;;;;;1.90;0.40;;;;;;;;;;6311164;22;20011;-80
2023/10/08 13:52:49;;;;;;;1.95;0.40;;;;;;;;;;6284383;22;20011;-79
2023/10/08 13:55:19;;;;;;;1.50;0.57;;;;;;;;;;6284520;22;20099;-80
2023/10/08 13:57:46;;;;;;;2.97;0.70;;;;;;;;;;6284889;22;20017;-80
2023/10/08 14:00:15;;;;;;;1.60;0.47;;;;;;;;;;6283745;22;20008;-79
2023/10/08 14:02:44;;;;;;;4.05;0.70;;;;;;;;;;6307312;22;20011;-84
2023/10/08 14:05:15;;;;;;;6.28;1.10;;;;;;;;;;6273659;22;20463;-83
2023/10/08 14:07:44;;;;;;;3.10;0.40;;;;;;;;;;6277600;22;20458;-83
2023/10/08 14:10:18;;;;;;;3.72;0.50;;;;;;;;;;6306650;22;20007;-79
2023/10/08 14:12:48;;;;;;;1.08;0.40;;;;;;;;;;6307578;22;20012;-79
2023/10/08 14:15:15;;;;;;;3.53;0.68;;;;;;;;;;6307887;22;20063;-80
2023/10/08 14:17:43;;;;;;;3.17;0.60;;;;;;;;;;6281765;22;20462;-79
2023/10/08 14:20:13;;;;;;;2.13;0.38;;;;;;;;;;6309115;22;20011;-79
2023/10/08 14:22:40;;;;;;;1.42;0.50;;;;;;;;;;6311760;22;20011;-79
2023/10/08 14:25:11;;;;;;;0.55;0.30;;;;;;;;;;6283824;22;20023;-80
2023/10/08 14:27:43;;;;;;;3.35;0.60;;;;;;;;;;6282977;22;20027;-80
2023/10/08 14:30:21;;;;;;;0.90;0.30;;;;;;;;;;6312642;22;20019;-80
2023/10/08 14:32:48;;;;;;;2.22;0.55;;;;;;;;;;6288026;22;20059;-80
2023/10/08 14:43:34;;;;;;;3.63;0.60;;;;;;;;;;6280691;22;20016;-79
2023/10/08 14:46:04;;;;;;;2.85;0.30;;;;;;;;;;6309763;22;20030;-80
2023/10/08 14:48:30;;;;;;;1.70;0.40;;;;;;;;;;6310147;22;20030;-80
2023/10/08 14:50:56;;;;;;;3.30;0.80;;;;;;;;;;6308987;22;20047;-79
2023/10/08 14:53:24;;;;;;;1.38;0.47;;;;;;;;;;6310490;22;20037;-80
2023/10/08 14:55:51;;;;;;;1.52;0.57;;;;;;;;;;6256822;22;20350;-80
2023/10/08 14:58:18;;;;;;;1.00;0.50;;;;;;;;;;6282698;22;20011;-80
2023/10/08 15:00:45;;;;;;;3.30;0.60;;;;;;;;;;6311499;22;20018;-80
2023/10/08 15:03:12;;;;;;;2.30;0.35;;;;;;;;;;6310525;22;20047;-80
2023/10/08 15:05:40;;;;;;;1.77;0.77;;;;;;;;;;6310843;22;20027;-80
2023/10/08 15:08:09;;;;;;;2.53;0.70;;;;;;;;;;6283231;22;20022;-81
2023/10/08 15:10:36;;;;;;;1.00;0.40;;;;;;;;;;6311417;22;20339;-80
2023/10/08 15:13:02;;;;;;;2.90;0.50;;;;;;;;;;6283152;22;20011;-80
2023/10/08 15:15:34;;;;;;;1.02;0.47;;;;;;;;;;6283736;22;20022;-80
2023/10/08 15:18:02;;;;;;;1.58;0.50;;;;;;;;;;6257611;22;20007;-80
2023/10/08 15:20:31;;;;;;;2.17;0.40;;;;;;;;;;6286225;22;20086;-80
2023/10/08 15:22:58;;;;;;;2.13;0.45;;;;;;;;;;6284184;22;20090;-80
2023/10/08 15:25:24;;;;;;;1.35;0.50;;;;;;;;;;6286107;22;20015;-80
2023/10/08 15:27:50;;;;;;;0.63;0.40;;;;;;;;;;6286926;22;20015;-80
2023/10/08 15:30:21;;;;;;;2.25;0.63;;;;;;;;;;6286315;22;20094;-79
2023/10/08 15:32:47;;;;;;;1.42;0.40;;;;;;;;;;6260242;22;20178;-79
2023/10/08 15:35:16;;;;;;;1.95;0.50;;;;;;;;;;6284730;22;20027;-80
2023/10/08 15:37:42;;;;;;;1.42;0.50;;;;;;;;;;6286386;22;20063;-80
2023/10/08 15:40:17;;;;;;;2.38;0.70;;;;;;;;;;6313608;22;20513;-80
2023/10/08 15:42:43;;;;;;;1.58;0.93;;;;;;;;;;6286605;22;20078;-80
2023/10/08 15:45:12;;;;;;;3.80;0.80;;;;;;;;;;6293011;22;20049;-80
2023/10/08 15:47:38;;;;;;;3.45;0.63;;;;;;;;;;6297613;22;20015;-80
2023/10/08 15:50:05;;;;;;;1.02;0.50;;;;;;;;;;6290998;22;20075;-80
2023/10/08 15:52:34;;;;;;;2.45;0.95;;;;;;;;;;6291162;22;20377;-80
2023/10/08 15:55:00;;;;;;;1.42;0.60;;;;;;;;;;6293288;22;20016;-79
2023/10/08 15:57:26;;;;;;;3.60;0.90;;;;;;;;;;6294746;22;20007;-79
2023/10/08 15:59:52;;;;;;;1.90;0.70;;;;;;;;;;6288280;22;20011;-80
2023/10/08 16:02:18;;;;;;;1.30;0.68;;;;;;;;;;6290670;22;20055;-80